Linwood, Wisconsin
Current Conditions -  °F | °C
As of 9:55 PM on Wednesday 22 Oct 2014 (Local Time) from KSTE Reporting Station
Clear Clear  
Wind Chill: 39°   Ceiling: Unl
Heat Index: 39°   Visibility: 10mi
Dew Point: 33°   Wind: 3mph
Humidity: 78%   Direction: 110°ESE
Pressure: 30.21"   Gusts: NA
Location:  44.5531°N, 89.5186°W
Report Text: KSTE 230255Z AUTO 11003KT 10SM CLR 04/01 A3021 RMK AO2 P0001 60001 T00410006
Loading
Personal Weather Stations






























Interactive Weather Map
Tropical Storm Tracking
New forecast layout! Learn more

10-Day Weather Forecast

Advertisements
Track Severe Weather on mobile